sensor_id;sensor_type;location;lat;lon;timestamp;pressure;altitude;pressure_sealevel;temperature
71630;BMP280;59479;51.902;8.212;2023-04-19T00:00:46;102141.06;;;13.06
71630;BMP280;59479;51.902;8.212;2023-04-19T00:03:11;102141.16;;;13.12
71630;BMP280;59479;51.902;8.212;2023-04-19T00:05:38;102138.47;;;13.00
71630;BMP280;59479;51.902;8.212;2023-04-19T00:08:06;102141.84;;;13.01
71630;BMP280;59479;51.902;8.212;2023-04-19T00:10:31;102130.84;;;12.97
71630;BMP280;59479;51.902;8.212;2023-04-19T00:12:57;102127.53;;;13.01
71630;BMP280;59479;51.902;8.212;2023-04-19T00:15:22;102133.22;;;12.88
71630;BMP280;59479;51.902;8.212;2023-04-19T00:17:47;102138.31;;;12.91
71630;BMP280;59479;51.902;8.212;2023-04-19T00:20:13;102130.69;;;12.85
71630;BMP280;59479;51.902;8.212;2023-04-19T00:22:39;102128.19;;;12.88
71630;BMP280;59479;51.902;8.212;2023-04-19T00:25:04;102131.50;;;12.84
71630;BMP280;59479;51.902;8.212;2023-04-19T00:27:30;102130.69;;;12.88
71630;BMP280;59479;51.902;8.212;2023-04-19T00:29:55;102128.19;;;12.88
71630;BMP280;59479;51.902;8.212;2023-04-19T00:32:22;102133.22;;;12.85
71630;BMP280;59479;51.902;8.212;2023-04-19T00:34:47;102139.72;;;12.74
71630;BMP280;59479;51.902;8.212;2023-04-19T00:37:12;102138.91;;;12.75
71630;BMP280;59479;51.902;8.212;2023-04-19T00:39:38;102139.78;;;12.77
71630;BMP280;59479;51.902;8.212;2023-04-19T00:42:03;102130.41;;;12.69
71630;BMP280;59479;51.902;8.212;2023-04-19T00:44:29;102137.94;;;12.67
71630;BMP280;59479;51.902;8.212;2023-04-19T00:46:55;102130.44;;;12.70
71630;BMP280;59479;51.902;8.212;2023-04-19T00:49:22;102130.38;;;12.67
71630;BMP280;59479;51.902;8.212;2023-04-19T00:51:49;102128.78;;;12.72
71630;BMP280;59479;51.902;8.212;2023-04-19T00:54:15;102126.19;;;12.69
71630;BMP280;59479;51.902;8.212;2023-04-19T00:56:41;102116.09;;;12.69
71630;BMP280;59479;51.902;8.212;2023-04-19T00:59:07;102123.50;;;12.59
71630;BMP280;59479;51.902;8.212;2023-04-19T01:01:32;102122.81;;;12.69
71630;BMP280;59479;51.902;8.212;2023-04-19T01:03:59;102117.81;;;12.70
71630;BMP280;59479;51.902;8.212;2023-04-19T01:06:26;102127.84;;;12.67
71630;BMP280;59479;51.902;8.212;2023-04-19T01:08:52;102125.22;;;12.61
71630;BMP280;59479;51.902;8.212;2023-04-19T01:11:18;102125.31;;;12.67
71630;BMP280;59479;51.902;8.212;2023-04-19T01:13:43;102132.09;;;12.68
71630;BMP280;59479;51.902;8.212;2023-04-19T01:16:09;102126.94;;;12.62
71630;BMP280;59479;51.902;8.212;2023-04-19T01:18:34;102125.03;;;12.50
71630;BMP280;59479;51.902;8.212;2023-04-19T01:21:02;102122.69;;;12.61
71630;BMP280;59479;51.902;8.212;2023-04-19T01:23:28;102122.78;;;12.66
71630;BMP280;59479;51.902;8.212;2023-04-19T01:25:53;102128.41;;;12.49
71630;BMP280;59479;51.902;8.212;2023-04-19T01:28:18;102128.59;;;12.60
71630;BMP280;59479;51.902;8.212;2023-04-19T01:30:44;102126.06;;;12.60
71630;BMP280;59479;51.902;8.212;2023-04-19T01:33:09;102126.09;;;12.62
71630;BMP280;59479;51.902;8.212;2023-04-19T01:35:35;102123.38;;;12.52
71630;BMP280;59479;51.902;8.212;2023-04-19T01:38:00;102122.56;;;12.53
71630;BMP280;59479;51.902;8.212;2023-04-19T01:40:26;102116.66;;;12.51
71630;BMP280;59479;51.902;8.212;2023-04-19T01:42:52;102109.16;;;12.54
71630;BMP280;59479;51.902;8.212;2023-04-19T01:45:17;102111.47;;;12.43
71630;BMP280;59479;51.902;8.212;2023-04-19T01:47:42;102116.59;;;12.48
71630;BMP280;59479;51.902;8.212;2023-04-19T01:50:08;102119.03;;;12.43
71630;BMP280;59479;51.902;8.212;2023-04-19T01:52:33;102108.88;;;12.37
71630;BMP280;59479;51.902;8.212;2023-04-19T01:54:59;102117.31;;;12.39
71630;BMP280;59479;51.902;8.212;2023-04-19T01:57:24;102117.19;;;12.32
71630;BMP280;59479;51.902;8.212;2023-04-19T01:59:49;102118.13;;;12.37
71630;BMP280;59479;51.902;8.212;2023-04-19T02:02:15;102109.66;;;12.35
71630;BMP280;59479;51.902;8.212;2023-04-19T02:04:40;102119.00;;;12.39
71630;BMP280;59479;51.902;8.212;2023-04-19T02:07:06;102123.06;;;12.31
71630;BMP280;59479;51.902;8.212;2023-04-19T02:09:35;102119.59;;;12.26
71630;BMP280;59479;51.902;8.212;2023-04-19T02:12:01;102112.13;;;12.30
71630;BMP280;59479;51.902;8.212;2023-04-19T02:14:26;102118.09;;;12.35
71630;BMP280;59479;51.902;8.212;2023-04-19T02:16:53;102113.84;;;12.33
71630;BMP280;59479;51.902;8.212;2023-04-19T02:19:18;102120.44;;;12.26
71630;BMP280;59479;51.902;8.212;2023-04-19T02:21:43;102120.41;;;12.25
71630;BMP280;59479;51.902;8.212;2023-04-19T02:24:09;102115.44;;;12.28
71630;BMP280;59479;51.902;8.212;2023-04-19T02:26:34;102114.44;;;12.17
71630;BMP280;59479;51.902;8.212;2023-04-19T02:29:00;102116.09;;;12.18
71630;BMP280;59479;51.902;8.212;2023-04-19T02:31:26;102114.44;;;12.17
71630;BMP280;59479;51.902;8.212;2023-04-19T02:33:51;102109.22;;;12.08
71630;BMP280;59479;51.902;8.212;2023-04-19T02:36:16;102105.13;;;12.15
71630;BMP280;59479;51.902;8.212;2023-04-19T02:38:41;102108.53;;;12.18
71630;BMP280;59479;51.902;8.212;2023-04-19T02:41:07;102106.00;;;12.15
71630;BMP280;59479;51.902;8.212;2023-04-19T02:43:32;102104.16;;;12.08
71630;BMP280;59479;51.902;8.212;2023-04-19T02:45:57;102105.75;;;12.00
71630;BMP280;59479;51.902;8.212;2023-04-19T02:48:23;102115.84;;;12.03
71630;BMP280;59479;51.902;8.212;2023-04-19T02:50:48;102107.50;;;12.06
71630;BMP280;59479;51.902;8.212;2023-04-19T02:53:14;102110.91;;;12.08
71630;BMP280;59479;51.902;8.212;2023-04-19T02:55:39;102116.66;;;12.01
71630;BMP280;59479;51.902;8.212;2023-04-19T02:58:05;102114.94;;;12.00
71630;BMP280;59479;51.902;8.212;2023-04-19T03:00:30;102114.03;;;11.96
71630;BMP280;59479;51.902;8.212;2023-04-19T03:02:55;102114.28;;;12.10
71630;BMP280;59479;51.902;8.212;2023-04-19T03:05:22;102114.25;;;12.08
71630;BMP280;59479;51.902;8.212;2023-04-19T03:07:47;102122.31;;;11.89
71630;BMP280;59479;51.902;8.212;2023-04-19T03:10:13;102119.94;;;11.95
71630;BMP280;59479;51.902;8.212;2023-04-19T03:12:38;102111.41;;;11.89
71630;BMP280;59479;51.902;8.212;2023-04-19T03:15:04;102123.88;;;11.83
71630;BMP280;59479;51.902;8.212;2023-04-19T03:17:30;102126.59;;;11.95
71630;BMP280;59479;51.902;8.212;2023-04-19T03:19:56;102120.66;;;11.91
71630;BMP280;59479;51.902;8.212;2023-04-19T03:22:21;102123.94;;;11.86
71630;BMP280;59479;51.902;8.212;2023-04-19T03:24:46;102118.13;;;11.90
71630;BMP280;59479;51.902;8.212;2023-04-19T03:27:12;102115.31;;;11.74
71630;BMP280;59479;51.902;8.212;2023-04-19T03:29:37;102118.66;;;11.73
71630;BMP280;59479;51.902;8.212;2023-04-19T03:32:02;102116.94;;;11.70
71630;BMP280;59479;51.902;8.212;2023-04-19T03:34:28;102115.19;;;11.68
71630;BMP280;59479;51.902;8.212;2023-04-19T03:36:53;102107.69;;;11.71
71630;BMP280;59479;51.902;8.212;2023-04-19T03:39:19;102111.00;;;11.68
71630;BMP280;59479;51.902;8.212;2023-04-19T03:41:44;102109.38;;;11.72
71630;BMP280;59479;51.902;8.212;2023-04-19T03:44:09;102114.22;;;11.61
71630;BMP280;59479;51.902;8.212;2023-04-19T03:46:35;102110.00;;;11.59
71630;BMP280;59479;51.902;8.212;2023-04-19T03:49:00;102111.69;;;11.60
71630;BMP280;59479;51.902;8.212;2023-04-19T03:51:25;102110.81;;;11.58
71630;BMP280;59479;51.902;8.212;2023-04-19T03:53:51;102112.38;;;11.53
71630;BMP280;59479;51.902;8.212;2023-04-19T03:56:16;102108.78;;;11.42
71630;BMP280;59479;51.902;8.212;2023-04-19T03:58:42;102114.75;;;11.45
71630;BMP280;59479;51.902;8.212;2023-04-19T04:01:07;102113.81;;;11.42
71630;BMP280;59479;51.902;8.212;2023-04-19T04:03:33;102114.75;;;11.45
71630;BMP280;59479;51.902;8.212;2023-04-19T04:05:59;102113.00;;;11.43
71630;BMP280;59479;51.902;8.212;2023-04-19T04:08:24;102111.31;;;11.43
71630;BMP280;59479;51.902;8.212;2023-04-19T04:10:49;102113.78;;;11.40
71630;BMP280;59479;51.902;8.212;2023-04-19T04:13:15;102117.66;;;11.25
71630;BMP280;59479;51.902;8.212;2023-04-19T04:15:40;102120.34;;;11.32
71630;BMP280;59479;51.902;8.212;2023-04-19T04:18:05;102121.06;;;11.27
71630;BMP280;59479;51.902;8.212;2023-04-19T04:20:31;102128.56;;;11.24
71630;BMP280;59479;51.902;8.212;2023-04-19T04:22:56;102131.75;;;11.17
71630;BMP280;59479;51.902;8.212;2023-04-19T04:25:21;102131.81;;;11.19
71630;BMP280;59479;51.902;8.212;2023-04-19T04:27:50;102133.03;;;10.99
71630;BMP280;59479;51.902;8.212;2023-04-19T04:30:16;102146.50;;;11.01
71630;BMP280;59479;51.902;8.212;2023-04-19T04:32:41;102140.47;;;10.94
71630;BMP280;59479;51.902;8.212;2023-04-19T04:35:08;102136.47;;;11.02
71630;BMP280;59479;51.902;8.212;2023-04-19T04:37:34;102138.16;;;11.03
71630;BMP280;59479;51.902;8.212;2023-04-19T04:40:02;102136.47;;;11.02
71630;BMP280;59479;51.902;8.212;2023-04-19T04:42:31;102153.13;;;10.97
71630;BMP280;59479;51.902;8.212;2023-04-19T04:44:57;102138.91;;;10.99
71630;BMP280;59479;51.902;8.212;2023-04-19T04:47:23;102153.16;;;10.99
71630;BMP280;59479;51.902;8.212;2023-04-19T04:49:48;102163.16;;;10.96
71630;BMP280;59479;51.902;8.212;2023-04-19T04:52:14;102148.75;;;10.89
71630;BMP280;59479;51.902;8.212;2023-04-19T04:54:39;102153.53;;;10.79
71630;BMP280;59479;51.902;8.212;2023-04-19T04:57:05;102146.63;;;10.72
71630;BMP280;59479;51.902;8.212;2023-04-19T04:59:30;102160.16;;;10.75
71630;BMP280;59479;51.902;8.212;2023-04-19T05:01:56;102157.22;;;10.57
71630;BMP280;59479;51.902;8.212;2023-04-19T05:04:21;102156.38;;;10.57
71630;BMP280;59479;51.902;8.212;2023-04-19T05:06:47;102159.84;;;10.63
71630;BMP280;59479;51.902;8.212;2023-04-19T05:09:12;102159.94;;;10.66
71630;BMP280;59479;51.902;8.212;2023-04-19T05:11:37;102158.25;;;10.67
71630;BMP280;59479;51.902;8.212;2023-04-19T05:14:03;102161.72;;;10.70
71630;BMP280;59479;51.902;8.212;2023-04-19T05:16:28;102160.72;;;10.64
71630;BMP280;59479;51.902;8.212;2023-04-19T05:18:54;102158.69;;;10.49
71630;BMP280;59479;51.902;8.212;2023-04-19T05:21:20;102167.06;;;10.50
71630;BMP280;59479;51.902;8.212;2023-04-19T05:23:45;102157.75;;;10.46
71630;BMP280;59479;51.902;8.212;2023-04-19T05:26:10;102164.19;;;10.35
71630;BMP280;59479;51.902;8.212;2023-04-19T05:28:39;102168.22;;;10.29
71630;BMP280;59479;51.902;8.212;2023-04-19T05:31:04;102164.84;;;10.28
71630;BMP280;59479;51.902;8.212;2023-04-19T05:33:30;102172.00;;;10.13
71630;BMP280;59479;51.902;8.212;2023-04-19T05:35:55;102166.81;;;10.07
71630;BMP280;59479;51.902;8.212;2023-04-19T05:38:21;102172.56;;;10.02
71630;BMP280;59479;51.902;8.212;2023-04-19T05:40:46;102167.47;;;10.01
71630;BMP280;59479;51.902;8.212;2023-04-19T05:43:11;102167.44;;;9.99
71630;BMP280;59479;51.902;8.212;2023-04-19T05:45:37;102171.75;;;10.05
71630;BMP280;59479;51.902;8.212;2023-04-19T05:48:02;102178.28;;;9.98
71630;BMP280;59479;51.902;8.212;2023-04-19T05:50:27;102176.59;;;9.97
71630;BMP280;59479;51.902;8.212;2023-04-19T05:52:53;102173.03;;;9.91
71630;BMP280;59479;51.902;8.212;2023-04-19T05:55:18;102170.47;;;9.89
71630;BMP280;59479;51.902;8.212;2023-04-19T05:57:43;102172.34;;;9.95
71630;BMP280;59479;51.902;8.212;2023-04-19T06:00:09;102172.22;;;9.92
71630;BMP280;59479;51.902;8.212;2023-04-19T06:02:35;102170.34;;;9.85
71630;BMP280;59479;51.902;8.212;2023-04-19T06:05:00;102180.28;;;9.80
71630;BMP280;59479;51.902;8.212;2023-04-19T06:07:29;102172.28;;;9.93
71630;BMP280;59479;51.902;8.212;2023-04-19T06:09:54;102165.63;;;9.95
71630;BMP280;59479;51.902;8.212;2023-04-19T06:12:20;102172.38;;;9.96
71630;BMP280;59479;51.902;8.212;2023-04-19T06:14:45;102176.31;;;9.88
71630;BMP280;59479;51.902;8.212;2023-04-19T06:17:10;102181.50;;;9.93
71630;BMP280;59479;51.902;8.212;2023-04-19T06:19:36;102178.06;;;9.91
71630;BMP280;59479;51.902;8.212;2023-04-19T06:22:01;102177.03;;;9.84
71630;BMP280;59479;51.902;8.212;2023-04-19T06:24:26;102170.13;;;9.76
71630;BMP280;59479;51.902;8.212;2023-04-19T06:26:52;102168.00;;;9.91
71630;BMP280;59479;51.902;8.212;2023-04-19T06:29:17;102168.28;;;10.00
71630;BMP280;59479;51.902;8.212;2023-04-19T06:31:46;102166.50;;;9.96
71630;BMP280;59479;51.902;8.212;2023-04-19T06:34:11;102167.53;;;10.04
71630;BMP280;59479;51.902;8.212;2023-04-19T06:36:37;102167.31;;;9.95
71630;BMP280;59479;51.902;8.212;2023-04-19T06:39:02;102167.94;;;9.88
71630;BMP280;59479;51.902;8.212;2023-04-19T06:41:28;102180.34;;;9.83
71630;BMP280;59479;51.902;8.212;2023-04-19T06:43:53;102166.31;;;9.90
71630;BMP280;59479;51.902;8.212;2023-04-19T06:46:18;102176.16;;;9.82
71630;BMP280;59479;51.902;8.212;2023-04-19T06:48:44;102168.13;;;9.94
71630;BMP280;59479;51.902;8.212;2023-04-19T06:51:09;102167.41;;;9.98
71630;BMP280;59479;51.902;8.212;2023-04-19T06:53:35;102166.81;;;10.07
71630;BMP280;59479;51.902;8.212;2023-04-19T06:56:02;102169.03;;;9.96
71630;BMP280;59479;51.902;8.212;2023-04-19T06:58:29;102179.53;;;10.12
71630;BMP280;59479;51.902;8.212;2023-04-19T07:00:54;102177.72;;;10.08
71630;BMP280;59479;51.902;8.212;2023-04-19T07:03:20;102180.34;;;10.12
71630;BMP280;59479;51.902;8.212;2023-04-19T07:05:45;102178.56;;;10.07
71630;BMP280;59479;51.902;8.212;2023-04-19T07:08:11;102170.88;;;10.03
71630;BMP280;59479;51.902;8.212;2023-04-19T07:10:36;102173.47;;;10.06
71630;BMP280;59479;51.902;8.212;2023-04-19T07:13:01;102170.13;;;10.06
71630;BMP280;59479;51.902;8.212;2023-04-19T07:15:27;102170.06;;;10.04
71630;BMP280;59479;51.902;8.212;2023-04-19T07:17:52;102165.38;;;10.15
71630;BMP280;59479;51.902;8.212;2023-04-19T07:20:18;102172.88;;;10.14
71630;BMP280;59479;51.902;8.212;2023-04-19T07:22:43;102173.72;;;10.14
71630;BMP280;59479;51.902;8.212;2023-04-19T07:25:08;102172.69;;;10.08
71630;BMP280;59479;51.902;8.212;2023-04-19T07:27:34;102164.53;;;10.16
71630;BMP280;59479;51.902;8.212;2023-04-19T07:29:59;102174.75;;;10.22
71630;BMP280;59479;51.902;8.212;2023-04-19T07:32:25;102176.44;;;10.23
71630;BMP280;59479;51.902;8.212;2023-04-19T07:34:50;102168.84;;;10.20
71630;BMP280;59479;51.902;8.212;2023-04-19T07:37:16;102166.59;;;10.31
71630;BMP280;59479;51.902;8.212;2023-04-19T07:39:41;102170.66;;;10.26
71630;BMP280;59479;51.902;8.212;2023-04-19T07:42:07;102171.72;;;10.35
71630;BMP280;59479;51.902;8.212;2023-04-19T07:44:32;102164.13;;;10.32
71630;BMP280;59479;51.902;8.212;2023-04-19T07:46:57;102171.94;;;10.43
71630;BMP280;59479;51.902;8.212;2023-04-19T07:49:23;102167.75;;;10.43
71630;BMP280;59479;51.902;8.212;2023-04-19T07:51:48;102161.94;;;10.46
71630;BMP280;59479;51.902;8.212;2023-04-19T07:54:13;102165.31;;;10.46
71630;BMP280;59479;51.902;8.212;2023-04-19T07:56:40;102160.44;;;10.52
71630;BMP280;59479;51.902;8.212;2023-04-19T07:59:06;102164.72;;;10.56
71630;BMP280;59479;51.902;8.212;2023-04-19T08:01:31;102158.13;;;10.61
71630;BMP280;59479;51.902;8.212;2023-04-19T08:03:56;102157.63;;;10.74
71630;BMP280;59479;51.902;8.212;2023-04-19T08:06:22;102153.31;;;10.70
71630;BMP280;59479;51.902;8.212;2023-04-19T08:08:47;102152.59;;;10.74
71630;BMP280;59479;51.902;8.212;2023-04-19T08:11:13;102149.44;;;10.82
71630;BMP280;59479;51.902;8.212;2023-04-19T08:13:38;102156.09;;;10.82
71630;BMP280;59479;51.902;8.212;2023-04-19T08:16:04;102149.59;;;10.89
71630;BMP280;59479;51.902;8.212;2023-04-19T08:18:30;102153.13;;;10.97
71630;BMP280;59479;51.902;8.212;2023-04-19T08:20:55;102150.69;;;11.00
71630;BMP280;59479;51.902;8.212;2023-04-19T08:23:21;102152.41;;;11.03
71630;BMP280;59479;51.902;8.212;2023-04-19T08:25:46;102140.94;;;11.15
71630;BMP280;59479;51.902;8.212;2023-04-19T08:28:12;102147.03;;;11.26
71630;BMP280;59479;51.902;8.212;2023-04-19T08:30:37;102139.63;;;11.32
71630;BMP280;59479;51.902;8.212;2023-04-19T08:33:02;102132.25;;;11.41
71630;BMP280;59479;51.902;8.212;2023-04-19T08:35:28;102133.06;;;11.38
71630;BMP280;59479;51.902;8.212;2023-04-19T08:37:53;102121.56;;;11.49
71630;BMP280;59479;51.902;8.212;2023-04-19T08:40:19;102123.31;;;11.55
71630;BMP280;59479;51.902;8.212;2023-04-19T08:42:44;102125.38;;;11.72
71630;BMP280;59479;51.902;8.212;2023-04-19T08:45:10;102120.47;;;11.79
71630;BMP280;59479;51.902;8.212;2023-04-19T08:47:38;102122.13;;;11.79
71630;BMP280;59479;51.902;8.212;2023-04-19T08:50:05;102122.25;;;11.86
71630;BMP280;59479;51.902;8.212;2023-04-19T08:52:35;102114.56;;;11.79
71630;BMP280;59479;51.902;8.212;2023-04-19T08:55:06;102112.09;;;11.80
71630;BMP280;59479;51.902;8.212;2023-04-19T08:57:32;102116.41;;;11.87
71630;BMP280;59479;51.902;8.212;2023-04-19T09:00:01;102109.78;;;11.92
71630;BMP280;59479;51.902;8.212;2023-04-19T09:02:26;102109.00;;;11.96
71630;BMP280;59479;51.902;8.212;2023-04-19T09:04:52;102106.53;;;11.99
71630;BMP280;59479;51.902;8.212;2023-04-19T09:07:27;102096.72;;;12.14
71630;BMP280;59479;51.902;8.212;2023-04-19T09:10:19;102101.75;;;12.14
71630;BMP280;59479;51.902;8.212;2023-04-19T09:13:01;102097.72;;;12.25
71630;BMP280;59479;51.902;8.212;2023-04-19T09:15:38;102092.84;;;12.34
71630;BMP280;59479;51.902;8.212;2023-04-19T09:18:05;102096.13;;;12.30
71630;BMP280;59479;51.902;8.212;2023-04-19T09:20:38;102094.44;;;12.29
71630;BMP280;59479;51.902;8.212;2023-04-19T09:23:06;102088.72;;;12.39
71630;BMP280;59479;51.902;8.212;2023-04-19T09:25:31;102079.63;;;12.47
71630;BMP280;59479;51.902;8.212;2023-04-19T09:28:13;102083.78;;;12.46
71630;BMP280;59479;51.902;8.212;2023-04-19T09:30:39;102081.34;;;12.51
71630;BMP280;59479;51.902;8.212;2023-04-19T09:33:06;102089.00;;;12.58
71630;BMP280;59479;51.902;8.212;2023-04-19T09:35:45;102082.25;;;12.56
71630;BMP280;59479;51.902;8.212;2023-04-19T09:38:13;102069.72;;;12.60
71630;BMP280;59479;51.902;8.212;2023-04-19T09:40:39;102071.44;;;12.62
71630;BMP280;59479;51.902;8.212;2023-04-19T09:43:05;102065.75;;;12.75
71630;BMP280;59479;51.902;8.212;2023-04-19T09:45:40;102066.59;;;12.77
71630;BMP280;59479;51.902;8.212;2023-04-19T09:48:09;102077.72;;;12.87
71630;BMP280;59479;51.902;8.212;2023-04-19T09:50:36;102055.19;;;13.03
71630;BMP280;59479;51.902;8.212;2023-04-19T09:53:02;102067.84;;;13.06
71630;BMP280;59479;51.902;8.212;2023-04-19T09:55:27;102065.31;;;13.06
71630;BMP280;59479;51.902;8.212;2023-04-19T09:57:53;102052.81;;;13.15
71630;BMP280;59479;51.902;8.212;2023-04-19T10:00:19;102049.47;;;13.16
71630;BMP280;59479;51.902;8.212;2023-04-19T10:02:46;102043.56;;;13.14
71630;BMP280;59479;51.902;8.212;2023-04-19T10:05:19;102046.91;;;13.14
71630;BMP280;59479;51.902;8.212;2023-04-19T10:07:45;102036.09;;;13.24
71630;BMP280;59479;51.902;8.212;2023-04-19T10:10:11;102043.88;;;13.41
71630;BMP280;59479;51.902;8.212;2023-04-19T10:12:36;102027.94;;;13.47
71630;BMP280;59479;51.902;8.212;2023-04-19T10:15:02;102021.22;;;13.49
71630;BMP280;59479;51.902;8.212;2023-04-19T10:17:28;102024.63;;;13.54
71630;BMP280;59479;51.902;8.212;2023-04-19T10:19:58;102021.34;;;13.60
71630;BMP280;59479;51.902;8.212;2023-04-19T10:22:25;102011.44;;;13.82
71630;BMP280;59479;51.902;8.212;2023-04-19T10:27:33;101996.34;;;13.94
71630;BMP280;59479;51.902;8.212;2023-04-19T10:30:00;101985.44;;;14.01
71630;BMP280;59479;51.902;8.212;2023-04-19T10:32:28;101986.38;;;14.07
71630;BMP280;59479;51.902;8.212;2023-04-19T10:34:53;101985.56;;;14.13
71630;BMP280;59479;51.902;8.212;2023-04-19T10:37:24;101991.50;;;14.13
71630;BMP280;59479;51.902;8.212;2023-04-19T10:39:50;101987.38;;;14.28
71630;BMP280;59479;51.902;8.212;2023-04-19T10:42:16;101970.56;;;14.41
71630;BMP280;59479;51.902;8.212;2023-04-19T10:44:41;101973.13;;;14.45
71630;BMP280;59479;51.902;8.212;2023-04-19T10:47:07;101972.31;;;14.51
71630;BMP280;59479;51.902;8.212;2023-04-19T10:49:43;101966.44;;;14.55
71630;BMP280;59479;51.902;8.212;2023-04-19T10:52:25;101962.28;;;14.69
71630;BMP280;59479;51.902;8.212;2023-04-19T10:54:55;101960.59;;;14.70
71630;BMP280;59479;51.902;8.212;2023-04-19T10:57:21;101954.69;;;14.66
71630;BMP280;59479;51.902;8.212;2023-04-19T11:00:21;101946.25;;;14.65
71630;BMP280;59479;51.902;8.212;2023-04-19T11:02:47;101948.81;;;14.68
71630;BMP280;59479;51.902;8.212;2023-04-19T11:05:12;101943.72;;;14.71
71630;BMP280;59479;51.902;8.212;2023-04-19T11:07:39;101948.00;;;14.82
71630;BMP280;59479;51.902;8.212;2023-04-19T11:10:05;101931.16;;;15.01
71630;BMP280;59479;51.902;8.212;2023-04-19T11:12:32;101933.72;;;15.04
71630;BMP280;59479;51.902;8.212;2023-04-19T11:14:58;101930.38;;;15.13
71630;BMP280;59479;51.902;8.212;2023-04-19T11:17:30;101937.97;;;15.19
71630;BMP280;59479;51.902;8.212;2023-04-19T11:19:58;101914.34;;;15.20
71630;BMP280;59479;51.902;8.212;2023-04-19T11:22:30;101923.66;;;15.21
71630;BMP280;59479;51.902;8.212;2023-04-19T11:24:56;101909.31;;;15.26
71630;BMP280;59479;51.902;8.212;2023-04-19T11:27:21;101897.47;;;15.36
71630;BMP280;59479;51.902;8.212;2023-04-19T11:29:47;101910.16;;;15.37
71630;BMP280;59479;51.902;8.212;2023-04-19T11:32:12;101894.97;;;15.55
71630;BMP280;59479;51.902;8.212;2023-04-19T11:34:40;101885.66;;;15.67
71630;BMP280;59479;51.902;8.212;2023-04-19T11:37:05;101867.91;;;15.72
71630;BMP280;59479;51.902;8.212;2023-04-19T11:39:31;101880.59;;;15.63
71630;BMP280;59479;51.902;8.212;2023-04-19T11:41:57;101886.47;;;15.69
71630;BMP280;59479;51.902;8.212;2023-04-19T11:44:23;101867.88;;;15.78
71630;BMP280;59479;51.902;8.212;2023-04-19T11:46:59;101883.91;;;16.02
71630;BMP280;59479;51.902;8.212;2023-04-19T11:49:29;101876.34;;;15.78
71630;BMP280;59479;51.902;8.212;2023-04-19T11:51:56;101874.63;;;15.89
71630;BMP280;59479;51.902;8.212;2023-04-19T11:54:22;101869.56;;;15.94
71630;BMP280;59479;51.902;8.212;2023-04-19T11:57:04;101871.25;;;15.89
71630;BMP280;59479;51.902;8.212;2023-04-19T12:00:06;101861.91;;;16.07
71630;BMP280;59479;51.902;8.212;2023-04-19T12:02:39;101863.59;;;16.08
71630;BMP280;59479;51.902;8.212;2023-04-19T12:05:14;101862.78;;;16.01
71630;BMP280;59479;51.902;8.212;2023-04-19T12:08:02;101856.84;;;15.99
71630;BMP280;59479;51.902;8.212;2023-04-19T12:10:29;101855.97;;;16.09
71630;BMP280;59479;51.902;8.212;2023-04-19T12:12:55;101856.78;;;16.16
71630;BMP280;59479;51.902;8.212;2023-04-19T12:15:20;101850.88;;;16.12
71630;BMP280;59479;51.902;8.212;2023-04-19T12:17:59;101846.63;;;16.19
71630;BMP280;59479;51.902;8.212;2023-04-19T12:20:33;101852.59;;;16.13
71630;BMP280;59479;51.902;8.212;2023-04-19T12:22:59;101856.00;;;16.06
71630;BMP280;59479;51.902;8.212;2023-04-19T12:25:32;101838.19;;;16.15
71630;BMP280;59479;51.902;8.212;2023-04-19T12:27:58;101847.47;;;16.19
71630;BMP280;59479;51.902;8.212;2023-04-19T12:30:24;101838.19;;;16.29
71630;BMP280;59479;51.902;8.212;2023-04-19T12:32:50;101846.59;;;16.38
71630;BMP280;59479;51.902;8.212;2023-04-19T12:35:22;101827.09;;;16.49
71630;BMP280;59479;51.902;8.212;2023-04-19T12:37:48;101824.56;;;16.46
71630;BMP280;59479;51.902;8.212;2023-04-19T12:40:14;101816.09;;;16.51
71630;BMP280;59479;51.902;8.212;2023-04-19T12:42:39;101824.56;;;16.46
71630;BMP280;59479;51.902;8.212;2023-04-19T12:45:05;101821.91;;;16.64
71630;BMP280;59479;51.902;8.212;2023-04-19T12:47:31;101813.47;;;16.65
71630;BMP280;59479;51.902;8.212;2023-04-19T12:49:56;101813.34;;;16.81
71630;BMP280;59479;51.902;8.212;2023-04-19T12:52:22;101809.13;;;16.79
71630;BMP280;59479;51.902;8.212;2023-04-19T12:54:47;101809.97;;;16.81
71630;BMP280;59479;51.902;8.212;2023-04-19T12:57:12;101811.59;;;16.86
71630;BMP280;59479;51.902;8.212;2023-04-19T12:59:38;101808.16;;;16.94
71630;BMP280;59479;51.902;8.212;2023-04-19T13:02:04;101804.84;;;16.86
71630;BMP280;59479;51.902;8.212;2023-04-19T13:04:30;101798.00;;;16.94
71630;BMP280;59479;51.902;8.212;2023-04-19T13:06:55;101784.38;;;17.06
71630;BMP280;59479;51.902;8.212;2023-04-19T13:09:20;101780.06;;;17.18
71630;BMP280;59479;51.902;8.212;2023-04-19T13:11:46;101774.91;;;17.24
71630;BMP280;59479;51.902;8.212;2023-04-19T13:14:11;101779.25;;;17.10
71630;BMP280;59479;51.902;8.212;2023-04-19T13:16:36;101775.88;;;17.11
71630;BMP280;59479;51.902;8.212;2023-04-19T13:19:02;101769.91;;;17.15
71630;BMP280;59479;51.902;8.212;2023-04-19T13:21:27;101763.91;;;17.25
71630;BMP280;59479;51.902;8.212;2023-04-19T13:23:52;101755.31;;;17.38
71630;BMP280;59479;51.902;8.212;2023-04-19T13:26:18;101754.28;;;17.54
71630;BMP280;59479;51.902;8.212;2023-04-19T13:28:43;101746.56;;;17.63
71630;BMP280;59479;51.902;8.212;2023-04-19T13:31:09;101743.13;;;17.67
71630;BMP280;59479;51.902;8.212;2023-04-19T13:33:35;101745.81;;;17.55
71630;BMP280;59479;51.902;8.212;2023-04-19T13:36:00;101727.22;;;17.50
71630;BMP280;59479;51.902;8.212;2023-04-19T13:38:26;101726.50;;;17.37
71630;BMP280;59479;51.902;8.212;2023-04-19T13:40:51;101715.63;;;17.25
71630;BMP280;59479;51.902;8.212;2023-04-19T13:43:16;101717.22;;;17.36
71630;BMP280;59479;51.902;8.212;2023-04-19T13:45:42;101726.34;;;17.51
71630;BMP280;59479;51.902;8.212;2023-04-19T13:48:07;101718.84;;;17.42
71630;BMP280;59479;51.902;8.212;2023-04-19T13:50:32;101705.06;;;17.59
71630;BMP280;59479;51.902;8.212;2023-04-19T13:52:57;101708.47;;;17.60
71630;BMP280;59479;51.902;8.212;2023-04-19T13:55:23;101705.91;;;17.61